createdAt,value
2018-06-17T00:00:29.607Z,0.00
2018-06-17T00:01:29.640Z,0.00
2018-06-17T00:02:29.629Z,0.00
2018-06-17T00:03:29.641Z,0.00
2018-06-17T00:04:29.680Z,0.00
2018-06-17T00:05:29.638Z,0.00
2018-06-17T00:06:29.644Z,0.00
2018-06-17T00:07:29.647Z,0.00
2018-06-17T00:08:29.724Z,0.00
2018-06-17T00:09:29.662Z,0.00
2018-06-17T00:10:29.736Z,0.00
2018-06-17T00:11:29.712Z,0.00
2018-06-17T00:12:29.717Z,0.00
2018-06-17T00:13:29.690Z,0.00
2018-06-17T00:14:29.731Z,0.00
2018-06-17T00:15:29.741Z,0.00
2018-06-17T00:16:29.767Z,0.00
2018-06-17T00:17:29.766Z,0.00
2018-06-17T00:18:29.723Z,0.00
2018-06-17T00:19:29.758Z,0.00
2018-06-17T00:20:29.745Z,0.00
2018-06-17T00:21:29.831Z,0.00
2018-06-17T00:22:29.759Z,0.00
2018-06-17T00:23:29.756Z,0.00
2018-06-17T00:24:29.787Z,0.00
2018-06-17T00:25:29.772Z,0.00
2018-06-17T00:26:29.853Z,0.00
2018-06-17T00:27:29.822Z,0.00
2018-06-17T00:28:29.794Z,0.00
2018-06-17T00:29:29.881Z,0.00
2018-06-17T00:30:29.806Z,0.00
2018-06-17T00:31:29.808Z,0.00
2018-06-17T00:32:29.822Z,0.00
2018-06-17T00:33:29.832Z,0.00
2018-06-17T00:34:29.893Z,0.00
2018-06-17T00:35:29.895Z,0.00
2018-06-17T00:36:29.868Z,0.00
2018-06-17T00:37:29.919Z,0.00
2018-06-17T00:38:29.862Z,0.00
2018-06-17T00:39:29.865Z,0.00
2018-06-17T00:40:29.898Z,0.00
2018-06-17T00:41:29.910Z,0.00
2018-06-17T00:42:29.941Z,0.00
2018-06-17T00:43:29.927Z,0.00
2018-06-17T00:44:29.938Z,0.00
2018-06-17T00:45:29.910Z,0.00
2018-06-17T00:46:29.934Z,0.00
2018-06-17T00:47:29.983Z,0.00
2018-06-17T00:48:29.939Z,0.00
2018-06-17T00:49:29.974Z,0.00
2018-06-17T00:50:29.945Z,0.00
2018-06-17T00:51:29.979Z,0.00
2018-06-17T00:52:29.954Z,0.00
2018-06-17T00:53:29.964Z,0.00
2018-06-17T00:54:30.029Z,0.00
2018-06-17T00:55:30.057Z,0.00
2018-06-17T00:56:30.019Z,0.00
2018-06-17T00:57:30.013Z,0.00
2018-06-17T00:58:30.052Z,0.00
2018-06-17T00:59:30.043Z,0.00
2018-06-17T01:00:30.059Z,0.00
2018-06-17T01:01:30.074Z,0.00
2018-06-17T01:02:30.073Z,0.00
2018-06-17T01:03:30.034Z,0.00
2018-06-17T01:04:30.100Z,0.00
2018-06-17T01:05:30.084Z,0.00
2018-06-17T01:06:30.127Z,0.00
2018-06-17T01:07:30.108Z,0.00
2018-06-17T01:08:30.073Z,0.00
2018-06-17T01:09:30.174Z,0.00
2018-06-17T01:10:30.161Z,0.00
2018-06-17T01:11:30.146Z,0.00
2018-06-17T01:12:30.098Z,0.00
2018-06-17T01:13:30.098Z,0.00
2018-06-17T01:14:30.122Z,0.00
2018-06-17T01:15:30.113Z,0.00
2018-06-17T01:16:30.168Z,0.00
2018-06-17T01:17:30.168Z,0.00
2018-06-17T01:18:30.192Z,0.00
2018-06-17T01:19:30.203Z,0.00
2018-06-17T01:20:30.165Z,0.00
2018-06-17T01:21:30.163Z,0.00
2018-06-17T01:22:30.218Z,0.00
2018-06-17T01:23:30.177Z,0.00
2018-06-17T01:24:30.201Z,0.00
2018-06-17T01:25:30.184Z,0.00
2018-06-17T01:26:30.190Z,0.00
2018-06-17T01:27:30.205Z,0.00
2018-06-17T01:28:30.201Z,0.00
2018-06-17T01:29:30.282Z,0.00
2018-06-17T01:30:30.247Z,0.00
2018-06-17T01:31:30.224Z,0.00
2018-06-17T01:32:30.303Z,0.00
2018-06-17T01:33:30.242Z,0.00
2018-06-17T01:34:30.336Z,0.00
2018-06-17T01:35:30.311Z,0.00
2018-06-17T01:36:30.326Z,0.00
2018-06-17T01:37:30.340Z,0.00
2018-06-17T01:38:30.281Z,0.00
2018-06-17T01:39:30.348Z,0.00
2018-06-17T01:40:30.330Z,0.00
2018-06-17T01:41:30.315Z,0.00
2018-06-17T01:42:30.303Z,0.00
2018-06-17T01:43:30.305Z,0.00
2018-06-17T01:44:30.374Z,0.00
2018-06-17T01:45:30.361Z,0.00
2018-06-17T01:46:30.335Z,0.00
2018-06-17T01:47:30.337Z,0.00
2018-06-17T01:48:30.414Z,0.00
2018-06-17T01:49:30.419Z,0.00
2018-06-17T01:50:30.412Z,0.00
2018-06-17T01:51:30.367Z,0.00
2018-06-17T01:52:30.370Z,0.00
2018-06-17T01:53:30.445Z,0.00
2018-06-17T01:54:30.407Z,0.00
2018-06-17T01:55:30.432Z,0.00
2018-06-17T01:56:30.439Z,0.00
2018-06-17T01:57:30.410Z,0.00
2018-06-17T01:58:32.232Z,0.00
2018-06-17T01:59:30.425Z,0.00
2018-06-17T02:00:30.431Z,0.00
2018-06-17T02:01:30.492Z,0.00
2018-06-17T02:02:30.448Z,0.00
2018-06-17T02:03:30.546Z,0.00
2018-06-17T02:04:30.471Z,0.00
2018-06-17T02:05:30.461Z,0.00
2018-06-17T02:06:30.515Z,0.00
2018-06-17T02:07:30.496Z,0.00
2018-06-17T02:08:30.482Z,0.00
2018-06-17T02:09:30.490Z,0.00
2018-06-17T02:10:30.510Z,0.00
2018-06-17T02:11:30.514Z,0.00
2018-06-17T02:12:30.541Z,0.00
2018-06-17T02:13:30.581Z,0.00
2018-06-17T02:14:30.580Z,0.00
2018-06-17T02:15:30.527Z,0.00
2018-06-17T02:16:30.557Z,0.00
2018-06-17T02:17:30.581Z,0.00
2018-06-17T02:18:30.596Z,0.00
2018-06-17T02:19:30.562Z,0.00
2018-06-17T02:20:30.613Z,0.00
2018-06-17T02:21:30.676Z,0.00
2018-06-17T02:22:30.640Z,0.00
2018-06-17T02:23:30.647Z,0.00
2018-06-17T02:24:30.594Z,0.00
2018-06-17T02:25:30.627Z,0.00
2018-06-17T02:26:30.606Z,0.00
2018-06-17T02:27:30.613Z,0.00
2018-06-17T02:28:30.618Z,0.00
2018-06-17T02:29:30.637Z,0.00
2018-06-17T02:30:30.636Z,0.00
2018-06-17T02:31:30.640Z,0.00
2018-06-17T02:32:30.701Z,0.00
2018-06-17T02:33:30.738Z,0.00
2018-06-17T02:34:30.721Z,0.00
2018-06-17T02:35:30.666Z,0.00
2018-06-17T02:36:30.767Z,0.00
2018-06-17T02:37:30.751Z,0.00
2018-06-17T02:38:30.696Z,0.00
2018-06-17T02:39:30.757Z,0.00
2018-06-17T02:40:30.736Z,0.00
2018-06-17T02:41:30.764Z,0.00
2018-06-17T02:42:30.740Z,0.00
2018-06-17T02:43:30.720Z,0.00
2018-06-17T02:44:30.791Z,0.00
2018-06-17T02:45:30.768Z,0.00
2018-06-17T02:46:30.753Z,0.00
2018-06-17T02:47:30.808Z,0.00
2018-06-17T02:48:30.816Z,0.00
2018-06-17T02:49:30.806Z,0.00
2018-06-17T02:50:30.771Z,0.00
2018-06-17T02:51:30.862Z,0.00
2018-06-17T02:52:30.810Z,0.00
2018-06-17T02:53:30.820Z,0.00
2018-06-17T02:54:30.870Z,0.00
2018-06-17T02:55:30.806Z,0.00
2018-06-17T02:56:30.887Z,0.00
2018-06-17T02:57:30.847Z,0.00
2018-06-17T02:58:30.831Z,0.00
2018-06-17T02:59:30.910Z,4.00
2018-06-17T03:00:30.845Z,0.00
2018-06-17T03:01:30.911Z,0.00
2018-06-17T03:02:30.863Z,0.00
2018-06-17T03:03:30.911Z,4.00
2018-06-17T03:04:30.888Z,4.00
2018-06-17T03:05:30.945Z,0.00
2018-06-17T03:06:30.890Z,4.00
2018-06-17T03:07:30.892Z,4.00
2018-06-17T03:08:30.892Z,4.00
2018-06-17T03:09:30.974Z,0.00
2018-06-17T03:10:30.917Z,0.00
2018-06-17T03:11:30.911Z,0.00
2018-06-17T03:12:30.964Z,4.00
2018-06-17T03:13:30.988Z,4.00
2018-06-17T03:14:30.939Z,4.00
2018-06-17T03:15:30.986Z,4.00
2018-06-17T03:16:30.986Z,4.00
2018-06-17T03:17:31.040Z,8.00
2018-06-17T03:18:30.970Z,8.00
2018-06-17T03:19:30.985Z,8.00
2018-06-17T03:20:31.007Z,12.00
2018-06-17T03:21:30.986Z,12.00
2018-06-17T03:22:31.060Z,12.00
2018-06-17T03:23:30.993Z,12.00
2018-06-17T03:24:31.093Z,16.00
2018-06-17T03:25:31.024Z,20.00
2018-06-17T03:26:31.078Z,20.00
2018-06-17T03:27:31.057Z,20.00
2018-06-17T03:28:31.032Z,20.00
2018-06-17T03:29:31.040Z,24.00
2018-06-17T03:30:31.106Z,28.00
2018-06-17T03:31:31.056Z,28.00
2018-06-17T03:32:31.077Z,36.00
2018-06-17T03:33:31.114Z,40.00
2018-06-17T03:34:31.072Z,44.00
2018-06-17T03:35:31.114Z,48.00
2018-06-17T03:36:31.154Z,52.00
2018-06-17T03:37:31.123Z,56.00
2018-06-17T03:38:31.160Z,60.00
2018-06-17T03:39:31.123Z,64.00
2018-06-17T03:40:31.111Z,68.00
2018-06-17T03:41:31.179Z,72.00
2018-06-17T03:42:31.188Z,68.00
2018-06-17T03:43:31.141Z,72.00
2018-06-17T03:44:31.150Z,80.00
2018-06-17T03:45:31.198Z,92.00
2018-06-17T03:46:31.165Z,100.00
2018-06-17T03:47:31.187Z,108.00
2018-06-17T03:48:31.242Z,112.00
2018-06-17T03:49:31.207Z,116.00
2018-06-17T03:50:31.269Z,112.00
2018-06-17T03:51:31.258Z,116.00
2018-06-17T03:52:31.216Z,116.00
2018-06-17T03:53:31.204Z,108.00
2018-06-17T03:54:31.211Z,100.00
2018-06-17T03:55:31.239Z,100.00
2018-06-17T03:56:31.288Z,100.00
2018-06-17T03:57:31.295Z,100.00
2018-06-17T03:58:31.241Z,96.00
2018-06-17T03:59:31.365Z,96.00
2018-06-17T04:00:31.264Z,100.00
2018-06-17T04:01:31.258Z,100.00
2018-06-17T04:02:31.332Z,104.00
2018-06-17T04:03:31.336Z,104.00
2018-06-17T04:04:31.319Z,112.00
2018-06-17T04:05:31.395Z,128.00
2018-06-17T04:06:31.352Z,140.00
2018-06-17T04:07:31.343Z,148.00
2018-06-17T04:08:31.335Z,148.00
2018-06-17T04:09:31.309Z,152.00
2018-06-17T04:10:31.344Z,152.00
2018-06-17T04:11:31.386Z,152.00
2018-06-17T04:12:31.368Z,152.00
2018-06-17T04:13:31.371Z,152.00
2018-06-17T04:14:31.405Z,152.00
2018-06-17T04:15:31.421Z,156.00
2018-06-17T04:16:31.359Z,156.00
2018-06-17T04:17:31.427Z,160.00
2018-06-17T04:18:31.370Z,168.00
2018-06-17T04:19:31.464Z,184.00
2018-06-17T04:20:31.433Z,196.00
2018-06-17T04:21:31.470Z,188.00
2018-06-17T04:22:31.460Z,168.00
2018-06-17T04:23:31.480Z,140.00
2018-06-17T04:24:31.409Z,124.00
2018-06-17T04:25:31.519Z,112.00
2018-06-17T04:26:31.449Z,104.00
2018-06-17T04:27:31.433Z,100.00
2018-06-17T04:28:31.474Z,96.00
2018-06-17T04:29:31.485Z,100.00
2018-06-17T04:30:31.515Z,100.00
2018-06-17T04:31:31.483Z,104.00
2018-06-17T04:32:31.515Z,104.00
2018-06-17T04:33:31.546Z,100.00
2018-06-17T04:34:31.485Z,104.00
2018-06-17T04:35:33.267Z,100.00
2018-06-17T04:36:31.542Z,100.00
2018-06-17T04:37:31.624Z,104.00
2018-06-17T04:38:31.512Z,104.00
2018-06-17T04:39:31.525Z,104.00
2018-06-17T04:40:31.536Z,104.00
2018-06-17T04:41:31.566Z,108.00
2018-06-17T04:42:31.598Z,108.00
2018-06-17T04:43:31.614Z,104.00
2018-06-17T04:44:31.594Z,104.00
2018-06-17T04:45:31.556Z,100.00
2018-06-17T04:46:31.604Z,96.00
2018-06-17T04:47:31.617Z,96.00
2018-06-17T04:48:31.713Z,92.00
2018-06-17T04:49:31.640Z,92.00
2018-06-17T04:50:31.656Z,88.00
2018-06-17T04:51:31.687Z,84.00
2018-06-17T04:52:31.691Z,88.00
2018-06-17T04:53:31.609Z,92.00
2018-06-17T04:54:31.674Z,92.00
2018-06-17T04:55:31.673Z,92.00
2018-06-17T04:56:31.651Z,92.00
2018-06-17T04:57:31.702Z,92.00
2018-06-17T04:58:31.647Z,96.00
2018-06-17T04:59:31.647Z,96.00
2018-06-17T05:00:31.666Z,96.00
2018-06-17T05:01:31.734Z,92.00
2018-06-17T05:02:31.725Z,92.00
2018-06-17T05:03:31.708Z,92.00
2018-06-17T05:04:31.747Z,92.00
2018-06-17T05:05:31.688Z,88.00
2018-06-17T05:06:31.774Z,92.00
2018-06-17T05:07:31.739Z,92.00
2018-06-17T05:08:31.733Z,88.00
2018-06-17T05:09:31.721Z,84.00
2018-06-17T05:10:31.771Z,80.00
2018-06-17T05:11:31.804Z,76.00
2018-06-17T05:12:31.791Z,76.00
2018-06-17T05:13:31.746Z,84.00
2018-06-17T05:14:31.797Z,80.00
2018-06-17T05:15:31.799Z,84.00
2018-06-17T05:16:31.763Z,92.00
2018-06-17T05:17:31.796Z,96.00
2018-06-17T05:18:31.777Z,100.00
2018-06-17T05:19:31.790Z,100.00
2018-06-17T05:20:31.826Z,104.00
2018-06-17T05:21:31.835Z,112.00
2018-06-17T05:22:31.863Z,112.00
2018-06-17T05:23:31.876Z,112.00
2018-06-17T05:24:31.886Z,108.00
2018-06-17T05:25:31.892Z,104.00
2018-06-17T05:26:31.888Z,104.00
2018-06-17T05:27:31.835Z,100.00
2018-06-17T05:28:31.868Z,100.00
2018-06-17T05:29:31.852Z,100.00
2018-06-17T05:30:31.919Z,104.00
2018-06-17T05:31:31.928Z,104.00
2018-06-17T05:32:31.921Z,104.00
2018-06-17T05:33:31.933Z,104.00
2018-06-17T05:34:31.934Z,100.00
2018-06-17T05:35:31.950Z,96.00
2018-06-17T05:36:31.950Z,96.00
2018-06-17T05:37:31.967Z,100.00
2018-06-17T05:38:31.914Z,100.00
2018-06-17T05:39:33.797Z,104.00
2018-06-17T05:40:31.926Z,104.00
2018-06-17T05:41:32.020Z,104.00
2018-06-17T05:42:31.936Z,108.00
2018-06-17T05:43:31.952Z,112.00
2018-06-17T05:44:31.951Z,116.00
2018-06-17T05:45:31.998Z,124.00
2018-06-17T05:46:31.974Z,132.00
2018-06-17T05:47:32.042Z,140.00
2018-06-17T05:48:31.982Z,152.00
2018-06-17T05:49:31.984Z,160.00
2018-06-17T05:50:31.997Z,172.00
2018-06-17T05:51:32.027Z,188.00
2018-06-17T05:52:32.034Z,204.00
2018-06-17T05:53:32.012Z,216.00
2018-06-17T05:54:32.054Z,232.00
2018-06-17T05:55:32.074Z,248.00
2018-06-17T05:56:32.040Z,260.00
2018-06-17T05:57:32.091Z,276.00
2018-06-17T05:58:32.049Z,296.00
2018-06-17T05:59:32.062Z,316.00
2018-06-17T06:00:32.064Z,336.00
2018-06-17T06:01:32.104Z,364.00
2018-06-17T06:02:32.120Z,388.00
2018-06-17T06:03:32.101Z,332.00
2018-06-17T06:04:32.157Z,436.00
2018-06-17T06:05:32.143Z,460.00
2018-06-17T06:06:32.132Z,480.00
2018-06-17T06:07:32.112Z,492.00
2018-06-17T06:08:32.170Z,520.00
2018-06-17T06:09:32.116Z,564.00
2018-06-17T06:10:32.153Z,592.00
2018-06-17T06:11:32.175Z,640.00
2018-06-17T06:12:32.154Z,680.00
2018-06-17T06:13:32.175Z,704.00
2018-06-17T06:14:32.161Z,740.00
2018-06-17T06:15:32.229Z,788.00
2018-06-17T06:16:32.165Z,820.00
2018-06-17T06:17:32.202Z,844.00
2018-06-17T06:18:32.230Z,876.00
2018-06-17T06:19:32.222Z,896.00
2018-06-17T06:20:32.218Z,904.00
2018-06-17T06:21:32.238Z,916.00
2018-06-17T06:22:32.254Z,940.00
2018-06-17T06:23:32.223Z,952.00
2018-06-17T06:24:32.260Z,972.00
2018-06-17T06:25:32.258Z,988.00
2018-06-17T06:26:32.253Z,1004.00
2018-06-17T06:27:32.275Z,1012.00
2018-06-17T06:28:32.337Z,1012.00
2018-06-17T06:29:32.264Z,1000.00
2018-06-17T06:30:32.322Z,984.00
2018-06-17T06:31:32.293Z,964.00
2018-06-17T06:32:32.305Z,952.00
2018-06-17T06:33:32.283Z,960.00
2018-06-17T06:34:32.331Z,1012.00
2018-06-17T06:35:32.316Z,956.00
2018-06-17T06:36:32.358Z,988.00
2018-06-17T06:37:32.351Z,976.00
2018-06-17T06:38:32.379Z,988.00
2018-06-17T06:39:32.322Z,1016.00
2018-06-17T06:40:32.413Z,1060.00
2018-06-17T06:41:32.352Z,1084.00
2018-06-17T06:42:32.392Z,1012.00
2018-06-17T06:43:32.432Z,964.00
2018-06-17T06:44:32.383Z,948.00
2018-06-17T06:45:32.394Z,940.00
2018-06-17T06:46:32.451Z,912.00
2018-06-17T06:47:32.411Z,1000.00
2018-06-17T06:48:32.416Z,1104.00
2018-06-17T06:49:32.444Z,1128.00
2018-06-17T06:50:32.423Z,1096.00
2018-06-17T06:51:32.454Z,976.00
2018-06-17T06:52:32.476Z,1032.00
2018-06-17T06:53:32.419Z,1140.00
2018-06-17T06:54:32.431Z,1152.00
2018-06-17T06:55:32.470Z,1184.00
2018-06-17T06:56:32.480Z,1196.00
2018-06-17T06:57:32.507Z,1080.00
2018-06-17T06:58:32.543Z,972.00
2018-06-17T06:59:32.481Z,1084.00
2018-06-17T07:00:32.573Z,1092.00
2018-06-17T07:01:32.536Z,1136.00
2018-06-17T07:02:32.508Z,1168.00
2018-06-17T07:03:32.485Z,996.00
2018-06-17T07:04:32.580Z,1028.00
2018-06-17T07:05:32.544Z,1036.00
2018-06-17T07:06:32.560Z,1132.00
2018-06-17T07:07:32.600Z,1176.00
2018-06-17T07:08:32.550Z,1160.00
2018-06-17T07:09:32.599Z,912.00
2018-06-17T07:10:32.585Z,1060.00
2018-06-17T07:11:32.539Z,964.00
2018-06-17T07:12:32.550Z,992.00
2018-06-17T07:13:32.568Z,956.00
2018-06-17T07:14:32.573Z,868.00
2018-06-17T07:15:32.601Z,832.00
2018-06-17T07:16:32.582Z,808.00
2018-06-17T07:17:32.592Z,808.00
2018-06-17T07:18:32.660Z,1100.00
2018-06-17T07:19:32.649Z,1140.00
2018-06-17T07:20:32.607Z,1128.00
2018-06-17T07:21:32.613Z,1156.00
2018-06-17T07:22:32.623Z,1180.00
2018-06-17T07:23:32.670Z,1196.00
2018-06-17T07:24:32.640Z,1200.00
2018-06-17T07:25:32.662Z,1204.00
2018-06-17T07:26:32.720Z,1212.00
2018-06-17T07:27:32.655Z,1196.00
2018-06-17T07:28:32.662Z,1228.00
2018-06-17T07:29:32.703Z,1244.00
2018-06-17T07:30:32.674Z,1316.00
2018-06-17T07:31:32.778Z,1328.00
2018-06-17T07:32:32.732Z,1320.00
2018-06-17T07:33:32.739Z,1352.00
2018-06-17T07:34:32.786Z,1436.00
2018-06-17T07:35:32.740Z,1504.00
2018-06-17T07:36:32.779Z,1492.00
2018-06-17T07:37:32.787Z,1416.00
2018-06-17T07:38:32.867Z,1400.00
2018-06-17T07:39:32.836Z,1368.00
2018-06-17T07:40:32.783Z,1520.00
2018-06-17T07:41:32.775Z,1548.00
2018-06-17T07:42:32.867Z,1628.00
2018-06-17T07:43:32.770Z,1520.00
2018-06-17T07:44:32.780Z,1532.00
2018-06-17T07:45:32.808Z,1256.00
2018-06-17T07:46:32.795Z,1428.00
2018-06-17T07:47:32.826Z,1680.00
2018-06-17T07:48:32.856Z,1592.00
2018-06-17T07:49:32.828Z,1628.00
2018-06-17T07:50:32.887Z,1656.00
2018-06-17T07:51:32.865Z,1680.00
2018-06-17T07:52:32.844Z,1648.00
2018-06-17T07:53:32.850Z,1696.00
2018-06-17T07:54:32.932Z,1540.00
2018-06-17T07:55:32.861Z,1272.00
2018-06-17T07:56:32.900Z,1656.00
2018-06-17T07:57:32.918Z,1640.00
2018-06-17T07:58:32.910Z,1624.00
2018-06-17T07:59:32.963Z,1652.00
2018-06-17T08:00:32.933Z,1392.00
2018-06-17T08:01:32.907Z,1220.00
2018-06-17T08:02:32.945Z,1396.00
2018-06-17T08:03:33.012Z,1712.00
2018-06-17T08:04:33.002Z,1740.00
2018-06-17T08:05:32.964Z,1640.00
2018-06-17T08:06:32.950Z,1216.00
2018-06-17T08:07:32.981Z,1312.00
2018-06-17T08:08:32.968Z,1160.00
2018-06-17T08:09:32.982Z,1188.00
2018-06-17T08:10:32.985Z,1424.00
2018-06-17T08:11:33.012Z,1672.00
2018-06-17T08:12:33.032Z,1736.00
2018-06-17T08:13:33.103Z,1744.00
2018-06-17T08:14:33.045Z,1728.00
2018-06-17T08:15:33.026Z,1728.00
2018-06-17T08:16:33.065Z,1696.00
2018-06-17T08:17:33.063Z,1668.00
2018-06-17T08:18:33.097Z,1164.00
2018-06-17T08:19:33.055Z,1116.00
2018-06-17T08:20:33.069Z,1628.00
2018-06-17T08:21:33.102Z,1612.00
2018-06-17T08:22:33.120Z,1304.00
2018-06-17T08:23:33.094Z,1096.00
2018-06-17T08:24:33.104Z,1360.00
2018-06-17T08:25:33.116Z,1584.00
2018-06-17T08:26:33.114Z,1712.00
2018-06-17T08:27:33.173Z,1396.00
2018-06-17T08:28:33.163Z,1500.00
2018-06-17T08:29:33.149Z,1496.00
2018-06-17T08:30:33.246Z,1496.00
2018-06-17T08:31:33.181Z,1516.00
2018-06-17T08:32:33.192Z,1592.00
2018-06-17T08:33:33.201Z,2152.00
2018-06-17T08:34:33.215Z,1608.00
2018-06-17T08:35:33.245Z,2152.00
2018-06-17T08:36:33.243Z,2180.00
2018-06-17T08:37:33.242Z,2120.00
2018-06-17T08:38:33.234Z,2068.00
2018-06-17T08:39:33.228Z,1992.00
2018-06-17T08:40:33.256Z,1844.00
2018-06-17T08:41:33.301Z,1744.00
2018-06-17T08:42:33.360Z,1024.00
2018-06-17T08:43:33.283Z,996.00
2018-06-17T08:44:33.281Z,1100.00
2018-06-17T08:45:33.337Z,1244.00
2018-06-17T08:46:33.369Z,1288.00
2018-06-17T08:47:33.361Z,1292.00
2018-06-17T08:48:33.304Z,1248.00
2018-06-17T08:49:33.304Z,1660.00
2018-06-17T08:50:33.379Z,1392.00
2018-06-17T08:51:33.382Z,1884.00
2018-06-17T08:52:33.333Z,1812.00
2018-06-17T08:53:33.362Z,1832.00
2018-06-17T08:54:33.364Z,1868.00
2018-06-17T08:55:33.455Z,1888.00
2018-06-17T08:56:33.362Z,1956.00
2018-06-17T08:57:33.375Z,1384.00
2018-06-17T08:58:33.378Z,1832.00
2018-06-17T08:59:33.420Z,1488.00
2018-06-17T09:00:33.400Z,1716.00
2018-06-17T09:01:33.404Z,1616.00
2018-06-17T09:02:33.414Z,1436.00
2018-06-17T09:03:33.445Z,1804.00
2018-06-17T09:04:33.434Z,2044.00
2018-06-17T09:05:33.444Z,2164.00
2018-06-17T09:06:33.472Z,2068.00
2018-06-17T09:07:33.483Z,2344.00
2018-06-17T09:08:33.471Z,2388.00
2018-06-17T09:09:33.491Z,2332.00
2018-06-17T09:10:33.486Z,1592.00
2018-06-17T09:11:33.499Z,1528.00
2018-06-17T09:12:33.499Z,1540.00
2018-06-17T09:13:33.511Z,2172.00
2018-06-17T09:14:33.516Z,1872.00
2018-06-17T09:15:33.528Z,2068.00
2018-06-17T09:16:33.545Z,1764.00
2018-06-17T09:17:33.578Z,1412.00
2018-06-17T09:18:33.558Z,2148.00
2018-06-17T09:19:33.622Z,1416.00
2018-06-17T09:20:33.572Z,1596.00
2018-06-17T09:21:33.614Z,2312.00
2018-06-17T09:22:33.625Z,2336.00
2018-06-17T09:23:33.644Z,2332.00
2018-06-17T09:24:33.671Z,2328.00
2018-06-17T09:25:33.661Z,2344.00
2018-06-17T09:26:33.640Z,2352.00
2018-06-17T09:27:33.668Z,2372.00
2018-06-17T09:28:33.666Z,2360.00
2018-06-17T09:29:33.662Z,2340.00
2018-06-17T09:30:33.660Z,2380.00
2018-06-17T09:31:33.667Z,2324.00
2018-06-17T09:32:33.716Z,1428.00
2018-06-17T09:33:33.690Z,1396.00
2018-06-17T09:34:33.697Z,1376.00
2018-06-17T09:35:33.746Z,1372.00
2018-06-17T09:36:33.728Z,1420.00
2018-06-17T09:37:33.742Z,1424.00
2018-06-17T09:38:33.740Z,1376.00
2018-06-17T09:39:33.794Z,1428.00
2018-06-17T09:40:33.755Z,1608.00
2018-06-17T09:41:33.760Z,1708.00
2018-06-17T09:42:33.779Z,1676.00
2018-06-17T09:43:33.775Z,1724.00
2018-06-17T09:44:33.786Z,1828.00
2018-06-17T09:45:33.804Z,2888.00
2018-06-17T09:46:33.809Z,2748.00
2018-06-17T09:47:33.812Z,2136.00
2018-06-17T09:48:33.832Z,2556.00
2018-06-17T09:49:33.843Z,1536.00
2018-06-17T09:50:33.896Z,1732.00
2018-06-17T09:51:33.857Z,2492.00
2018-06-17T09:52:33.871Z,2460.00
2018-06-17T09:53:33.882Z,2548.00
2018-06-17T09:54:33.906Z,2608.00
2018-06-17T09:55:33.957Z,2748.00
2018-06-17T09:56:33.940Z,2772.00
2018-06-17T09:57:33.908Z,1800.00
2018-06-17T09:58:34.004Z,1740.00
2018-06-17T09:59:33.953Z,1516.00
2018-06-17T10:00:33.958Z,1580.00
2018-06-17T10:01:34.060Z,2084.00
2018-06-17T10:02:33.961Z,2044.00
2018-06-17T10:03:33.961Z,1648.00
2018-06-17T10:04:33.997Z,2308.00
2018-06-17T10:05:33.981Z,3092.00
2018-06-17T10:06:34.030Z,3064.00
2018-06-17T10:07:34.009Z,2812.00
2018-06-17T10:08:34.092Z,2452.00
2018-06-17T10:09:34.020Z,2336.00
2018-06-17T10:10:34.069Z,2584.00
2018-06-17T10:11:34.040Z,3156.00
2018-06-17T10:12:34.049Z,3392.00
2018-06-17T10:13:34.058Z,3508.00
2018-06-17T10:14:34.103Z,2192.00
2018-06-17T10:15:34.082Z,2216.00
2018-06-17T10:16:34.134Z,2100.00
2018-06-17T10:17:34.152Z,2704.00
2018-06-17T10:18:34.116Z,2320.00
2018-06-17T10:19:34.157Z,2400.00
2018-06-17T10:20:34.161Z,2508.00
2018-06-17T10:21:34.197Z,2832.00
2018-06-17T10:22:34.149Z,2744.00
2018-06-17T10:23:34.160Z,2756.00
2018-06-17T10:24:34.158Z,2708.00
2018-06-17T10:25:34.255Z,2480.00
2018-06-17T10:26:34.230Z,2420.00
2018-06-17T10:27:34.196Z,2348.00
2018-06-17T10:28:34.204Z,2320.00
2018-06-17T10:29:34.269Z,2348.00
2018-06-17T10:30:34.236Z,2368.00
2018-06-17T10:31:34.227Z,2300.00
2018-06-17T10:32:34.235Z,2352.00
2018-06-17T10:33:34.254Z,2316.00
2018-06-17T10:34:34.264Z,2308.00
2018-06-17T10:35:34.266Z,2332.00
2018-06-17T10:36:34.276Z,2396.00
2018-06-17T10:37:34.286Z,2448.00
2018-06-17T10:38:34.334Z,2492.00
2018-06-17T10:39:34.308Z,2564.00
2018-06-17T10:40:34.326Z,2552.00
2018-06-17T10:41:34.327Z,2756.00
2018-06-17T10:42:34.371Z,2716.00
2018-06-17T10:43:34.360Z,2596.00
2018-06-17T10:44:34.359Z,2500.00
2018-06-17T10:45:34.367Z,2472.00
2018-06-17T10:46:34.384Z,2516.00
2018-06-17T10:47:34.394Z,2492.00
2018-06-17T10:48:34.446Z,2484.00
2018-06-17T10:49:34.414Z,2740.00
2018-06-17T10:50:34.435Z,3084.00
2018-06-17T10:51:34.429Z,2868.00
2018-06-17T10:52:34.458Z,2688.00
2018-06-17T10:53:34.454Z,2936.00
2018-06-17T10:54:34.487Z,3072.00
2018-06-17T10:55:34.496Z,2876.00
2018-06-17T10:56:34.476Z,3364.00
2018-06-17T10:57:34.517Z,3692.00
2018-06-17T10:58:34.510Z,4260.00
2018-06-17T10:59:34.539Z,3936.00
2018-06-17T11:00:34.577Z,3328.00
2018-06-17T11:01:34.519Z,3032.00
2018-06-17T11:02:34.535Z,2876.00
2018-06-17T11:03:34.553Z,2916.00
2018-06-17T11:04:34.566Z,2940.00
2018-06-17T11:05:34.615Z,2968.00
2018-06-17T11:06:34.618Z,2856.00
2018-06-17T11:07:34.588Z,3336.00
2018-06-17T11:08:34.598Z,3572.00
2018-06-17T11:09:34.627Z,3356.00
2018-06-17T11:10:34.616Z,3460.00
2018-06-17T11:11:34.624Z,3084.00
2018-06-17T11:12:34.671Z,2872.00
2018-06-17T11:13:34.647Z,2592.00
2018-06-17T11:14:34.652Z,2736.00
2018-06-17T11:15:34.666Z,2532.00
2018-06-17T11:16:34.672Z,2432.00
2018-06-17T11:17:34.685Z,2428.00
2018-06-17T11:18:34.697Z,2328.00
2018-06-17T11:19:34.721Z,2320.00
2018-06-17T11:20:34.716Z,2312.00
2018-06-17T11:21:34.748Z,2288.00
2018-06-17T11:22:34.782Z,2280.00
2018-06-17T11:23:34.755Z,2276.00
2018-06-17T11:24:34.767Z,2244.00
2018-06-17T11:25:34.765Z,2228.00
2018-06-17T11:26:34.804Z,2184.00
2018-06-17T11:27:34.837Z,2152.00
2018-06-17T11:28:34.823Z,2120.00
2018-06-17T11:29:34.812Z,2120.00
2018-06-17T11:30:34.850Z,2112.00
2018-06-17T11:31:34.832Z,2116.00
2018-06-17T11:32:34.843Z,2180.00
2018-06-17T11:33:34.858Z,2268.00
2018-06-17T11:34:34.922Z,2288.00
2018-06-17T11:35:34.871Z,2280.00
2018-06-17T11:36:34.932Z,2224.00
2018-06-17T11:37:34.925Z,2136.00
2018-06-17T11:38:34.933Z,2068.00
2018-06-17T11:39:34.946Z,2000.00
2018-06-17T11:40:34.919Z,1972.00
2018-06-17T11:41:34.960Z,1944.00
2018-06-17T11:42:34.946Z,1964.00
2018-06-17T11:43:34.991Z,2028.00
2018-06-17T11:44:34.972Z,2104.00
2018-06-17T11:45:35.016Z,2156.00
2018-06-17T11:46:34.985Z,2204.00
2018-06-17T11:47:35.000Z,2276.00
2018-06-17T11:48:35.004Z,2368.00
2018-06-17T11:49:35.016Z,2492.00
2018-06-17T11:50:35.054Z,2560.00
2018-06-17T11:51:35.055Z,2600.00
2018-06-17T11:52:35.074Z,2612.00
2018-06-17T11:53:35.145Z,2640.00
2018-06-17T11:54:35.160Z,2708.00
2018-06-17T11:55:35.118Z,2808.00
2018-06-17T11:56:35.081Z,2508.00
2018-06-17T11:57:35.153Z,2424.00
2018-06-17T11:58:35.105Z,2324.00
2018-06-17T11:59:35.128Z,2280.00
2018-06-17T12:00:35.147Z,2200.00
2018-06-17T12:01:35.135Z,2132.00
2018-06-17T12:02:35.140Z,2108.00
2018-06-17T12:03:35.201Z,2036.00
2018-06-17T12:04:35.171Z,1948.00
2018-06-17T12:05:35.185Z,1852.00
2018-06-17T12:06:35.254Z,1744.00
2018-06-17T12:07:35.228Z,1648.00
2018-06-17T12:08:35.208Z,1544.00
2018-06-17T12:09:35.280Z,1440.00
2018-06-17T12:10:35.280Z,1368.00
2018-06-17T12:11:35.273Z,1296.00
2018-06-17T12:12:35.247Z,1224.00
2018-06-17T12:13:35.282Z,1176.00
2018-06-17T12:14:35.261Z,1144.00
2018-06-17T12:15:35.284Z,1132.00
2018-06-17T12:16:35.319Z,1108.00
2018-06-17T12:17:35.293Z,1072.00
2018-06-17T12:18:35.308Z,1044.00
2018-06-17T12:19:35.368Z,1020.00
2018-06-17T12:20:35.322Z,996.00
2018-06-17T12:21:35.376Z,984.00
2018-06-17T12:22:35.346Z,976.00
2018-06-17T12:23:35.396Z,992.00
2018-06-17T12:24:35.404Z,996.00
2018-06-17T12:25:35.377Z,996.00
2018-06-17T12:26:35.413Z,1004.00
2018-06-17T12:27:35.441Z,1004.00
2018-06-17T12:28:35.508Z,992.00
2018-06-17T12:29:35.440Z,984.00
2018-06-17T12:30:35.423Z,988.00
2018-06-17T12:31:35.469Z,992.00
2018-06-17T12:32:35.447Z,976.00